createdAt,value
2023-03-12T00:02:21.541Z,3.38
2023-03-12T00:04:49.977Z,3.28
2023-03-12T00:07:17.900Z,3.53
2023-03-12T00:09:45.938Z,3.55
2023-03-12T00:12:13.811Z,3.78
2023-03-12T00:14:41.789Z,3.58
2023-03-12T00:17:11.107Z,3.50
2023-03-12T00:19:39.101Z,3.80
2023-03-12T00:22:07.139Z,4.20
2023-03-12T00:24:35.000Z,3.70
2023-03-12T00:27:02.856Z,3.63
2023-03-12T00:29:30.809Z,3.78
2023-03-12T00:31:58.816Z,3.22
2023-03-12T00:34:28.431Z,3.50
2023-03-12T00:36:56.602Z,3.45
2023-03-12T00:39:24.480Z,3.35
2023-03-12T00:41:52.291Z,3.42
2023-03-12T00:44:20.504Z,3.40
2023-03-12T00:46:48.542Z,3.65
2023-03-12T00:49:16.736Z,3.55
2023-03-12T00:51:46.476Z,3.25
2023-03-12T00:54:16.731Z,3.70
2023-03-12T00:56:46.764Z,3.15
2023-03-12T00:59:15.373Z,3.88
2023-03-12T01:01:43.441Z,3.35
2023-03-12T01:04:11.435Z,3.25
2023-03-12T01:06:39.336Z,3.40
2023-03-12T01:09:09.274Z,3.13
2023-03-12T01:11:38.043Z,3.03
2023-03-12T01:14:06.872Z,3.22
2023-03-12T01:16:35.204Z,3.65
2023-03-12T01:19:03.714Z,3.50
2023-03-12T01:21:32.309Z,3.10
2023-03-12T01:24:00.292Z,3.13
2023-03-12T01:26:29.780Z,2.63
2023-03-12T01:29:03.650Z,2.80
2023-03-12T01:31:31.811Z,3.10
2023-03-12T01:33:59.716Z,2.38
2023-03-12T01:36:29.269Z,2.83
2023-03-12T01:38:57.894Z,2.60
2023-03-12T01:41:27.728Z,2.60
2023-03-12T01:43:57.063Z,3.03
2023-03-12T01:46:29.733Z,2.83
2023-03-12T01:49:00.591Z,2.92
2023-03-12T01:51:31.012Z,2.67
2023-03-12T01:54:00.695Z,2.90
2023-03-12T01:56:31.662Z,2.92
2023-03-12T01:59:01.680Z,2.60
2023-03-12T02:01:30.748Z,3.22
2023-03-12T02:04:00.954Z,2.63
2023-03-12T02:06:32.232Z,2.80
2023-03-12T02:09:02.172Z,2.83
2023-03-12T02:11:31.028Z,3.35
2023-03-12T02:14:00.441Z,2.75
2023-03-12T02:16:28.858Z,2.90
2023-03-12T02:18:58.739Z,3.30
2023-03-12T02:21:28.510Z,2.97
2023-03-12T02:23:58.776Z,3.05
2023-03-12T02:26:30.842Z,3.47
2023-03-12T02:29:00.652Z,3.50
2023-03-12T02:31:30.813Z,2.78
2023-03-12T02:34:00.695Z,3.45
2023-03-12T02:36:28.915Z,3.13
2023-03-12T02:38:57.456Z,3.58
2023-03-12T02:41:27.208Z,3.40
2023-03-12T02:44:00.009Z,3.53
2023-03-12T02:46:28.719Z,3.40
2023-03-12T02:48:57.327Z,3.72
2023-03-12T02:51:25.225Z,2.95
2023-03-12T02:53:55.161Z,3.50
2023-03-12T02:56:23.890Z,3.25
2023-03-12T02:58:52.009Z,3.10
2023-03-12T03:01:21.752Z,3.30
2023-03-12T03:03:50.020Z,3.65
2023-03-12T03:06:18.648Z,3.50
2023-03-12T03:08:46.615Z,3.75
2023-03-12T03:11:14.903Z,3.55
2023-03-12T03:13:42.785Z,3.53
2023-03-12T03:16:12.426Z,3.83
2023-03-12T03:18:42.185Z,3.92
2023-03-12T03:21:10.606Z,3.70
2023-03-12T03:23:38.710Z,3.80
2023-03-12T03:26:06.543Z,3.72
2023-03-12T03:28:34.484Z,3.67
2023-03-12T03:31:02.492Z,3.95
2023-03-12T03:33:36.882Z,3.80
2023-03-12T03:36:08.154Z,3.97
2023-03-12T03:38:40.023Z,4.25
2023-03-12T03:41:08.156Z,4.80
2023-03-12T03:43:41.139Z,4.57
2023-03-12T03:46:11.845Z,4.70
2023-03-12T03:48:42.885Z,4.30
2023-03-12T03:51:13.015Z,4.28
2023-03-12T03:53:44.548Z,4.65
2023-03-12T03:56:13.503Z,4.68
2023-03-12T03:58:45.409Z,4.15
2023-03-12T04:01:13.992Z,5.05
2023-03-12T04:03:42.715Z,5.05
2023-03-12T04:06:11.698Z,5.20
2023-03-12T04:08:41.785Z,4.47
2023-03-12T04:11:14.924Z,5.00
2023-03-12T04:13:43.581Z,5.47
2023-03-12T04:16:12.990Z,5.03
2023-03-12T04:18:43.151Z,4.78
2023-03-12T04:21:12.482Z,4.93
2023-03-12T04:23:42.786Z,4.57
2023-03-12T04:26:12.778Z,4.78
2023-03-12T04:28:41.009Z,5.10
2023-03-12T04:31:10.300Z,5.15
2023-03-12T04:33:42.598Z,5.68
2023-03-12T04:36:13.244Z,4.93
2023-03-12T04:38:46.418Z,5.32
2023-03-12T04:41:16.951Z,4.65
2023-03-12T04:43:49.695Z,5.47
2023-03-12T04:46:19.378Z,4.75
2023-03-12T04:48:47.947Z,5.43
2023-03-12T04:51:16.561Z,4.50
2023-03-12T04:53:46.079Z,6.07
2023-03-12T04:56:14.964Z,5.55
2023-03-12T04:58:44.283Z,5.97
2023-03-12T05:01:20.592Z,6.15
2023-03-12T05:03:48.569Z,5.75
2023-03-12T05:06:16.606Z,5.82
2023-03-12T05:08:46.553Z,6.00
2023-03-12T05:11:15.054Z,6.45
2023-03-12T05:13:44.134Z,6.00
2023-03-12T05:16:13.186Z,7.25
2023-03-12T05:18:42.339Z,7.10
2023-03-12T05:21:12.788Z,7.10
2023-03-12T05:23:42.591Z,8.00
2023-03-12T05:26:18.714Z,8.82
2023-03-12T05:28:46.886Z,7.85
2023-03-12T05:31:15.720Z,8.82
2023-03-12T05:33:44.296Z,8.93
2023-03-12T05:36:13.257Z,8.07
2023-03-12T05:38:42.738Z,8.95
2023-03-12T05:41:17.721Z,8.95
2023-03-12T05:43:47.166Z,7.88
2023-03-12T05:46:15.483Z,8.40
2023-03-12T05:48:43.477Z,7.93
2023-03-12T05:51:11.690Z,9.68
2023-03-12T05:53:40.050Z,8.25
2023-03-12T05:56:08.939Z,8.02
2023-03-12T05:58:38.148Z,8.73
2023-03-12T06:01:12.982Z,8.07
2023-03-12T06:03:42.960Z,8.60
2023-03-12T06:06:11.085Z,9.60
2023-03-12T06:08:39.137Z,8.60
2023-03-12T06:11:07.096Z,8.40
2023-03-12T06:13:35.616Z,9.20
2023-03-12T06:16:05.579Z,9.02
2023-03-12T06:18:36.216Z,9.48
2023-03-12T06:21:11.723Z,8.85
2023-03-12T06:23:43.208Z,7.75
2023-03-12T06:26:15.109Z,8.05
2023-03-12T06:28:43.756Z,8.52
2023-03-12T06:31:11.767Z,8.15
2023-03-12T06:33:41.508Z,8.15
2023-03-12T06:36:10.620Z,7.82
2023-03-12T06:38:38.822Z,9.13
2023-03-12T06:41:07.811Z,8.55
2023-03-12T06:43:36.513Z,8.02
2023-03-12T06:46:04.990Z,7.68
2023-03-12T06:48:36.645Z,9.18
2023-03-12T06:51:06.218Z,8.07
2023-03-12T06:53:34.112Z,8.02
2023-03-12T06:56:02.815Z,7.97
2023-03-12T06:58:30.975Z,7.82
2023-03-12T07:00:58.861Z,7.50
2023-03-12T07:03:26.818Z,7.70
2023-03-12T07:05:58.271Z,9.07
2023-03-12T07:08:29.900Z,7.85
2023-03-12T07:11:00.750Z,8.23
2023-03-12T07:13:29.277Z,7.90
2023-03-12T07:15:57.263Z,8.95
2023-03-12T07:18:25.223Z,8.57
2023-03-12T07:20:53.534Z,7.95
2023-03-12T07:23:21.589Z,8.70
2023-03-12T07:25:51.189Z,8.70
2023-03-12T07:28:19.624Z,8.50
2023-03-12T07:30:50.609Z,8.77
2023-03-12T07:33:19.476Z,8.00
2023-03-12T07:35:50.201Z,8.00
2023-03-12T07:38:19.633Z,7.68
2023-03-12T07:40:52.987Z,8.40
2023-03-12T07:43:21.847Z,7.72
2023-03-12T07:45:51.911Z,7.03
2023-03-12T07:48:20.306Z,6.60
2023-03-12T07:50:48.763Z,7.10
2023-03-12T07:53:16.964Z,6.45
2023-03-12T07:55:46.150Z,6.20
2023-03-12T07:58:15.865Z,7.22
2023-03-12T08:00:44.436Z,6.22
2023-03-12T08:03:12.683Z,6.97
2023-03-12T08:05:40.866Z,6.13
2023-03-12T08:08:08.954Z,7.28
2023-03-12T08:10:37.430Z,6.97
2023-03-12T08:13:05.382Z,6.57
2023-03-12T08:15:34.939Z,5.97
2023-03-12T08:18:02.740Z,6.50
2023-03-12T08:20:30.538Z,7.05
2023-03-12T08:22:58.409Z,6.40
2023-03-12T08:25:26.510Z,6.68
2023-03-12T08:27:54.582Z,7.28
2023-03-12T08:30:22.775Z,7.03
2023-03-12T08:32:52.145Z,6.57
2023-03-12T08:35:20.027Z,6.80
2023-03-12T08:37:51.070Z,6.30
2023-03-12T08:40:19.056Z,6.68
2023-03-12T08:42:47.026Z,6.82
2023-03-12T08:45:15.863Z,5.60
2023-03-12T08:47:44.428Z,6.78
2023-03-12T08:50:15.357Z,7.35
2023-03-12T08:52:43.616Z,8.00
2023-03-12T08:55:11.863Z,6.53
2023-03-12T08:57:42.345Z,6.57
2023-03-12T09:00:15.384Z,6.88
2023-03-12T09:02:44.486Z,6.38
2023-03-12T09:05:14.159Z,5.95
2023-03-12T09:07:42.573Z,6.82
2023-03-12T09:10:10.821Z,6.95
2023-03-12T09:12:38.646Z,6.60
2023-03-12T09:15:07.150Z,7.18
2023-03-12T09:17:35.048Z,6.80
2023-03-12T09:20:07.188Z,7.40
2023-03-12T09:22:37.183Z,6.35
2023-03-12T09:25:13.219Z,7.25
2023-03-12T09:27:41.888Z,7.35
2023-03-12T09:30:11.006Z,7.22
2023-03-12T09:32:39.130Z,7.60
2023-03-12T09:35:07.291Z,8.02
2023-03-12T09:37:37.680Z,7.53
2023-03-12T09:40:08.007Z,6.25
2023-03-12T09:42:39.025Z,5.90
2023-03-12T09:45:08.602Z,6.13
2023-03-12T09:47:38.463Z,6.05
2023-03-12T09:50:08.020Z,6.05
2023-03-12T09:52:40.262Z,5.70
2023-03-12T09:55:14.997Z,6.20
2023-03-12T09:57:44.196Z,6.78
2023-03-12T10:00:14.547Z,7.22
2023-03-12T10:02:51.948Z,5.35
2023-03-12T10:05:24.344Z,5.93
2023-03-12T10:07:54.926Z,5.75
2023-03-12T10:10:32.005Z,6.88
2023-03-12T10:13:10.124Z,6.50
2023-03-12T10:15:42.164Z,5.20
2023-03-12T10:18:15.416Z,7.00
2023-03-12T10:20:50.632Z,5.97
2023-03-12T10:23:23.341Z,5.85
2023-03-12T10:25:54.703Z,5.90
2023-03-12T10:28:26.960Z,5.10
2023-03-12T10:30:56.055Z,5.15
2023-03-12T10:33:30.034Z,4.78
2023-03-12T10:35:58.052Z,5.28
2023-03-12T10:38:28.721Z,4.75
2023-03-12T10:40:57.968Z,4.95
2023-03-12T10:43:25.831Z,4.53
2023-03-12T10:45:56.678Z,4.13
2023-03-12T10:48:26.093Z,3.88
2023-03-12T10:51:02.585Z,5.90
2023-03-12T10:53:32.373Z,4.13
2023-03-12T10:56:03.269Z,7.25
2023-03-12T10:58:35.262Z,5.22
2023-03-12T11:01:04.133Z,5.35
2023-03-12T11:03:32.647Z,10.27
2023-03-12T11:06:01.395Z,4.90
2023-03-12T11:08:30.226Z,7.15
2023-03-12T11:10:58.651Z,5.95
2023-03-12T11:13:30.312Z,4.70
2023-03-12T11:15:59.090Z,4.55
2023-03-12T11:18:29.001Z,4.72
2023-03-12T11:20:57.626Z,4.28
2023-03-12T11:23:27.093Z,3.90
2023-03-12T11:25:56.990Z,3.60
2023-03-12T11:28:26.140Z,3.75
2023-03-12T11:30:58.515Z,3.00
2023-03-12T11:33:27.174Z,3.08
2023-03-12T11:36:14.123Z,3.03
2023-03-12T11:38:43.465Z,2.60
2023-03-12T11:41:19.354Z,3.38
2023-03-12T11:43:53.904Z,2.88
2023-03-12T11:46:28.637Z,2.35
2023-03-12T11:49:01.270Z,2.38
2023-03-12T11:51:34.346Z,2.30
2023-03-12T11:54:16.835Z,2.30
2023-03-12T11:56:46.250Z,2.20
2023-03-12T11:59:17.988Z,2.22
2023-03-12T12:01:53.825Z,2.20
2023-03-12T12:04:42.516Z,2.25
2023-03-12T12:07:15.133Z,1.73
2023-03-12T12:09:46.016Z,1.70
2023-03-12T12:12:20.201Z,1.85
2023-03-12T12:14:57.942Z,1.80
2023-03-12T12:17:32.565Z,1.70
2023-03-12T12:20:09.416Z,1.67
2023-03-12T12:22:45.492Z,2.20
2023-03-12T12:25:31.495Z,10.40
2023-03-12T12:28:06.692Z,1.88
2023-03-12T12:30:40.875Z,1.92
2023-03-12T12:33:18.633Z,1.65
2023-03-12T12:35:47.529Z,2.05
2023-03-12T12:38:17.190Z,2.00
2023-03-12T12:40:46.382Z,1.80
2023-03-12T12:43:23.763Z,2.70
2023-03-12T12:45:53.506Z,1.90
2023-03-12T12:48:26.246Z,2.00
2023-03-12T12:50:55.342Z,2.03
2023-03-12T12:53:25.115Z,2.03
2023-03-12T12:56:11.707Z,1.50
2023-03-12T12:59:03.335Z,1.70
2023-03-12T13:01:32.618Z,1.70
2023-03-12T13:04:04.207Z,1.50
2023-03-12T13:06:47.223Z,1.40
2023-03-12T13:09:16.768Z,2.05
2023-03-12T13:11:46.303Z,1.90
2023-03-12T13:14:21.623Z,1.85
2023-03-12T13:16:49.930Z,1.77
2023-03-12T13:19:28.712Z,1.70
2023-03-12T13:22:04.256Z,1.80
2023-03-12T13:24:34.345Z,1.38
2023-03-12T13:27:06.498Z,1.50
2023-03-12T13:29:39.031Z,1.65
2023-03-12T13:32:10.261Z,1.60
2023-03-12T13:34:47.027Z,1.50
2023-03-12T13:37:49.929Z,1.63
2023-03-12T13:40:37.086Z,1.60
2023-03-12T13:43:11.609Z,1.58
2023-03-12T13:45:42.386Z,2.45
2023-03-12T13:48:15.687Z,5.45
2023-03-12T13:50:52.007Z,3.72
2023-03-12T13:53:25.975Z,2.58
2023-03-12T13:56:01.729Z,2.25
2023-03-12T13:58:29.779Z,2.00
2023-03-12T14:00:58.904Z,2.00
2023-03-12T14:03:28.787Z,2.33
2023-03-12T14:05:59.693Z,1.92
2023-03-12T14:08:42.468Z,2.03
2023-03-12T14:11:21.713Z,2.00
2023-03-12T14:14:01.645Z,1.77
2023-03-12T14:16:32.285Z,1.80
2023-03-12T14:19:00.837Z,1.80
2023-03-12T14:21:32.380Z,2.00
2023-03-12T14:24:00.677Z,1.70
2023-03-12T14:26:30.969Z,1.50
2023-03-12T14:29:00.916Z,1.60
2023-03-12T14:31:30.315Z,1.52
2023-03-12T14:33:59.582Z,1.65
2023-03-12T14:36:29.132Z,1.38
2023-03-12T14:39:00.457Z,1.40
2023-03-12T14:41:31.411Z,1.90
2023-03-12T14:44:05.054Z,1.65
2023-03-12T14:46:33.125Z,3.00
2023-03-12T14:49:01.103Z,7.05
2023-03-12T14:51:30.317Z,5.50
2023-03-12T14:54:02.991Z,4.60
2023-03-12T14:56:34.849Z,3.28
2023-03-12T14:59:22.749Z,1.60
2023-03-12T15:01:50.903Z,1.65
2023-03-12T15:04:19.798Z,1.67
2023-03-12T15:06:49.078Z,1.95
2023-03-12T15:09:18.728Z,2.13
2023-03-12T15:11:52.346Z,1.80
2023-03-12T15:14:21.846Z,1.90
2023-03-12T15:16:50.820Z,1.90
2023-03-12T15:19:21.618Z,2.00
2023-03-12T15:21:49.606Z,2.33
2023-03-12T15:24:18.178Z,2.38
2023-03-12T15:26:46.135Z,2.00
2023-03-12T15:29:26.390Z,2.75
2023-03-12T15:31:56.250Z,2.05
2023-03-12T15:34:32.869Z,1.98
2023-03-12T15:37:01.811Z,2.17
2023-03-12T15:39:32.043Z,2.22
2023-03-12T15:42:01.773Z,2.75
2023-03-12T15:44:34.520Z,2.40
2023-03-12T15:47:06.261Z,3.00
2023-03-12T15:49:36.997Z,2.33
2023-03-12T15:52:06.814Z,2.63
2023-03-12T15:54:35.301Z,2.22
2023-03-12T15:57:21.047Z,2.85
2023-03-12T16:00:07.286Z,2.60
2023-03-12T16:02:37.502Z,2.20
2023-03-12T16:05:08.010Z,2.70
2023-03-12T16:07:37.355Z,2.30
2023-03-12T16:10:05.509Z,2.33
2023-03-12T16:12:33.421Z,2.50
2023-03-12T16:15:01.276Z,2.78
2023-03-12T16:17:29.381Z,2.28
2023-03-12T16:19:58.627Z,3.28
2023-03-12T16:22:26.676Z,2.78
2023-03-12T16:24:55.342Z,3.10
2023-03-12T16:27:32.327Z,2.60
2023-03-12T16:30:00.886Z,3.05
2023-03-12T16:32:28.749Z,2.70
2023-03-12T16:34:58.015Z,2.60
2023-03-12T16:37:26.946Z,3.10
2023-03-12T16:39:56.771Z,2.88
2023-03-12T16:42:24.640Z,3.05
2023-03-12T16:44:52.610Z,3.63
2023-03-12T16:47:20.848Z,3.00
2023-03-12T16:49:48.663Z,3.17
2023-03-12T16:52:18.941Z,4.03
2023-03-12T16:54:46.923Z,4.50
2023-03-12T16:57:17.681Z,3.60
2023-03-12T16:59:45.656Z,3.20
2023-03-12T17:02:16.652Z,3.15
2023-03-12T17:04:44.623Z,3.97
2023-03-12T17:07:12.442Z,3.80
2023-03-12T17:09:41.794Z,4.20
2023-03-12T17:12:12.563Z,3.90
2023-03-12T17:14:40.473Z,4.45
2023-03-12T17:17:08.439Z,8.05
2023-03-12T17:19:36.301Z,4.88
2023-03-12T17:22:04.605Z,4.35
2023-03-12T17:24:33.036Z,3.83
2023-03-12T17:27:02.248Z,3.80
2023-03-12T17:29:30.376Z,3.75
2023-03-12T17:31:58.527Z,4.10
2023-03-12T17:34:26.452Z,4.35
2023-03-12T17:36:54.283Z,3.38
2023-03-12T17:39:22.149Z,4.18
2023-03-12T17:41:50.441Z,4.10
2023-03-12T17:44:19.666Z,4.30
2023-03-12T17:46:58.934Z,4.25
2023-03-12T17:49:27.695Z,5.03
2023-03-12T17:51:55.676Z,4.95
2023-03-12T17:54:23.943Z,5.10
2023-03-12T17:56:51.814Z,5.22
2023-03-12T17:59:21.225Z,4.53
2023-03-12T18:01:49.128Z,5.00
2023-03-12T18:04:17.069Z,4.75
2023-03-12T18:06:45.319Z,4.43
2023-03-12T18:09:13.223Z,4.72
2023-03-12T18:11:41.072Z,4.00
2023-03-12T18:14:08.945Z,4.93
2023-03-12T18:16:38.266Z,4.20
2023-03-12T18:19:06.269Z,4.63
2023-03-12T18:21:34.196Z,5.60
2023-03-12T18:24:11.786Z,5.90
2023-03-12T18:26:41.725Z,6.10
2023-03-12T18:29:09.531Z,5.65
2023-03-12T18:31:38.961Z,5.47
2023-03-12T18:34:06.941Z,6.22
2023-03-12T18:36:34.866Z,6.90
2023-03-12T18:39:04.708Z,5.80
2023-03-12T18:41:33.013Z,6.28
2023-03-12T18:44:02.250Z,6.10
2023-03-12T18:46:30.481Z,5.93
2023-03-12T18:49:04.126Z,5.97
2023-03-12T18:51:32.432Z,6.32
2023-03-12T18:54:00.334Z,7.63
2023-03-12T18:56:28.998Z,7.00
2023-03-12T18:58:57.122Z,7.70
2023-03-12T19:01:26.181Z,7.75
2023-03-12T19:03:54.298Z,9.85
2023-03-12T19:06:23.701Z,10.35
2023-03-12T19:08:52.586Z,11.63
2023-03-12T19:11:20.540Z,12.23
2023-03-12T19:13:52.198Z,13.55
2023-03-12T19:16:21.982Z,14.77
2023-03-12T19:18:50.408Z,17.02
2023-03-12T19:21:18.560Z,18.75
2023-03-12T19:23:47.958Z,21.05
2023-03-12T19:26:15.968Z,20.48
2023-03-12T19:28:43.884Z,23.98
2023-03-12T19:31:15.113Z,25.17
2023-03-12T19:33:43.961Z,26.55
2023-03-12T19:36:12.330Z,26.80
2023-03-12T19:38:40.240Z,26.15
2023-03-12T19:41:10.320Z,29.70
2023-03-12T19:43:38.547Z,31.52
2023-03-12T19:46:06.977Z,33.95
2023-03-12T19:48:34.983Z,31.17
2023-03-12T19:51:06.299Z,33.30
2023-03-12T19:53:36.952Z,34.95
2023-03-12T19:56:05.131Z,34.45
2023-03-12T19:58:36.477Z,34.72
2023-03-12T20:01:04.630Z,36.33
2023-03-12T20:03:33.002Z,31.63
2023-03-12T20:06:01.051Z,34.38
2023-03-12T20:08:31.722Z,32.28
2023-03-12T20:11:03.279Z,30.90
2023-03-12T20:13:31.713Z,34.42
2023-03-12T20:16:01.490Z,31.75
2023-03-12T20:18:29.598Z,32.38
2023-03-12T20:20:57.724Z,31.45
2023-03-12T20:23:25.700Z,29.05
2023-03-12T20:25:53.631Z,28.52
2023-03-12T20:28:21.710Z,31.13
2023-03-12T20:30:49.827Z,27.55
2023-03-12T20:33:19.514Z,31.15
2023-03-12T20:35:50.256Z,28.73
2023-03-12T20:38:18.381Z,28.85
2023-03-12T20:40:47.241Z,30.23
2023-03-12T20:43:15.160Z,29.08
2023-03-12T20:45:43.392Z,29.85
2023-03-12T20:48:11.975Z,28.35
2023-03-12T20:50:41.280Z,29.73
2023-03-12T20:53:09.129Z,29.15
2023-03-12T20:55:38.867Z,28.38
2023-03-12T20:58:06.873Z,29.52
2023-03-12T21:00:37.997Z,31.05
2023-03-12T21:03:05.915Z,30.65
2023-03-12T21:05:33.895Z,32.47
2023-03-12T21:08:03.256Z,32.17
2023-03-12T21:10:31.890Z,34.75
2023-03-12T21:12:59.840Z,32.65
2023-03-12T21:15:27.882Z,33.10
2023-03-12T21:17:55.939Z,31.50
2023-03-12T21:20:23.923Z,32.55
2023-03-12T21:22:51.804Z,31.75
2023-03-12T21:25:21.208Z,32.40
2023-03-12T21:27:51.358Z,34.00
2023-03-12T21:30:19.987Z,30.80
2023-03-12T21:32:48.051Z,31.10
2023-03-12T21:35:16.255Z,32.78
2023-03-12T21:37:44.287Z,46.60
2023-03-12T21:40:12.938Z,62.20
2023-03-12T21:42:42.226Z,33.92
2023-03-12T21:45:10.902Z,32.25
2023-03-12T21:47:38.906Z,32.58
2023-03-12T21:50:07.345Z,31.73
2023-03-12T21:52:43.076Z,32.88
2023-03-12T21:55:11.663Z,33.10
2023-03-12T21:57:39.549Z,36.17
2023-03-12T22:00:12.877Z,34.70
2023-03-12T22:02:41.182Z,33.25
2023-03-12T22:05:09.753Z,33.38
2023-03-12T22:07:37.950Z,31.33
2023-03-12T22:10:07.144Z,29.75
2023-03-12T22:12:34.982Z,25.38
2023-03-12T22:15:03.519Z,26.77
2023-03-12T22:17:33.468Z,24.88
2023-03-12T22:20:02.287Z,25.23
2023-03-12T22:22:30.102Z,22.38
2023-03-12T22:24:58.023Z,23.35
2023-03-12T22:29:53.501Z,23.80
2023-03-12T22:32:21.445Z,21.42
2023-03-12T22:34:50.983Z,21.48
2023-03-12T22:37:19.049Z,22.35
2023-03-12T22:39:47.072Z,22.20
2023-03-12T22:42:14.896Z,20.85
2023-03-12T22:44:43.168Z,20.02
2023-03-12T22:47:11.057Z,19.67
2023-03-12T22:49:38.898Z,19.88
2023-03-12T22:52:08.370Z,26.30
2023-03-12T22:54:36.249Z,21.65
2023-03-12T22:57:04.492Z,19.15
2023-03-12T22:59:32.962Z,20.00
2023-03-12T23:02:01.023Z,18.98
2023-03-12T23:04:29.061Z,18.38
2023-03-12T23:07:07.664Z,19.02
2023-03-12T23:09:42.788Z,19.23
2023-03-12T23:12:10.691Z,18.85
2023-03-12T23:14:38.518Z,19.33
2023-03-12T23:17:06.566Z,20.10
2023-03-12T23:19:34.629Z,17.90
2023-03-12T23:22:02.774Z,19.10
2023-03-12T23:24:30.878Z,18.05
2023-03-12T23:27:00.290Z,18.98
2023-03-12T23:29:28.176Z,18.40
2023-03-12T23:31:56.174Z,18.05
2023-03-12T23:34:24.129Z,16.52
2023-03-12T23:36:52.496Z,16.95
2023-03-12T23:39:20.336Z,17.67
2023-03-12T23:41:48.241Z,18.35
2023-03-12T23:44:17.611Z,17.55
2023-03-12T23:46:45.996Z,17.23
2023-03-12T23:49:13.896Z,16.80
2023-03-12T23:51:41.883Z,16.13
2023-03-12T23:54:09.766Z,18.00
2023-03-12T23:56:38.973Z,17.20
2023-03-12T23:59:08.071Z,16.83
